Weather reports worldwide

Advertisment
La Seo D'Urgell, Spain (8115): temperature & dewpoint: 20.09.2018 05:00:00 - 26.09.2018 05:00:00 (CEST)La Seo D'Urgell, Spain (8115): wind speed & gusts: 20.09.2018 05:00:00 - 26.09.2018 05:00:00 (CEST)La Seo D'Urgell, Spain (8115): wind direction: 20.09.2018 05:00:00 - 26.09.2018 05:00:00 (CEST)La Seo D'Urgell, Spain (8115): precipitation: 20.09.2018 05:00:00 - 26.09.2018 05:00:00 (CEST)
Date & Time tt [°C] td [°C] ff [km/h] ff [kn] fx [km/h] fx [kn] dd rr [mm]
26.09.2018 05:00:00 12,5 10,6 0 0 3 2 S 0,0
26.09.2018 04:00:00 13,1 10,8 0 0 4 2 NE 0,0
26.09.2018 03:00:00 14,8 12,3 0 0 4 2 ESE 0,0
26.09.2018 02:00:00 15,4 12,2 1 0 5 3 ENE -
26.09.2018 01:00:00 15,8 12,0 1 0 5 3 WSW 0,0
26.09.2018 00:00:00 17,0 11,5 1 0 6 4 S 0,0
25.09.2018 23:00:00 17,1 11,6 0 0 4 2 W 0,0
25.09.2018 22:00:00 17,7 10,6 0 0 5 3 S 0,0
25.09.2018 21:00:00 19,7 8,4 3 1 9 5 WNW 0,0
25.09.2018 20:00:00 - - - - - - - -
25.09.2018 19:00:00 21,2 8,8 8 4 22 12 WSW 0,0
25.09.2018 18:00:00 22,0 9,2 6 3 18 10 WSW 0,0
25.09.2018 17:00:00 22,8 9,2 6 4 20 11 WSW 0,0
25.09.2018 16:00:00 22,9 9,3 8 4 24 13 WSW 0,0
25.09.2018 15:00:00 22,7 9,1 6 3 19 10 W 0,0
25.09.2018 14:00:00 23,2 9,6 4 2 14 8 SW -
25.09.2018 13:00:00 21,1 8,4 3 2 11 6 S 0,0
25.09.2018 12:00:00 17,9 7,1 4 2 9 5 SW 0,0
25.09.2018 11:00:00 16,6 7,0 3 2 6 3 SSW 0,0
25.09.2018 10:00:00 15,7 8,7 2 1 5 3 ESE 0,0
25.09.2018 09:00:00 10,5 9,3 1 1 5 3 SW 0,0
25.09.2018 08:00:00 9,0 7,9 0 0 4 2 SE -
25.09.2018 07:00:00 9,3 8,1 1 1 5 3 SSW 0,0
25.09.2018 06:00:00 9,8 8,4 0 0 4 2 ENE 0,0
25.09.2018 05:00:00 10,5 8,8 1 1 5 3 S 0,0
25.09.2018 04:00:00 11,3 9,2 2 1 6 3 SSW 0,0
25.09.2018 03:00:00 12,2 9,2 2 1 4 2 SW 0,0
25.09.2018 02:00:00 13,2 9,5 1 1 6 3 NE -
25.09.2018 01:00:00 14,5 8,9 1 1 11 6 S 0,0
25.09.2018 00:00:00 15,0 9,6 3 1 14 7 E 0,0
24.09.2018 23:00:00 17,8 7,3 6 3 17 9 ENE 0,0
24.09.2018 22:00:00 19,1 7,5 6 3 15 8 ENE 0,0
24.09.2018 21:00:00 21,2 9,8 0 0 6 4 NNW 0,0
24.09.2018 20:00:00 23,3 10,7 3 2 11 6 W -
24.09.2018 19:00:00 25,5 12,0 4 2 16 8 WSW 0,0
24.09.2018 18:00:00 26,3 12,0 6 3 21 11 SW 0,0
24.09.2018 17:00:00 27,9 11,5 6 3 20 11 SW 0,0
24.09.2018 16:00:00 28,6 11,2 6 3 22 12 SW 0,0
24.09.2018 15:00:00 28,7 11,3 6 3 21 11 SW 0,0
24.09.2018 14:00:00 27,8 10,5 9 5 22 12 WSW -
24.09.2018 13:00:00 27,1 12,3 2 1 6 3 SSW 0,0
24.09.2018 12:00:00 24,6 11,5 2 1 5 3 W 0,0
24.09.2018 11:00:00 22,0 11,4 1 1 5 3 SSE 0,0
24.09.2018 10:00:00 17,7 11,9 3 2 7 4 SSW 0,0
24.09.2018 09:00:00 12,6 11,3 3 2 9 5 SSW 0,0
24.09.2018 08:00:00 11,2 10,0 1 1 5 3 NE -
24.09.2018 07:00:00 11,5 10,1 1 1 6 3 NNE 0,0
24.09.2018 06:00:00 12,3 10,7 0 0 5 3 SW 0,0
24.09.2018 05:00:00 12,9 11,0 1 0 5 3 SSW 0,0
24.09.2018 04:00:00 14,1 11,6 1 0 6 3 NNE 0,0
24.09.2018 03:00:00 14,8 11,9 2 1 5 3 SSW 0,0
24.09.2018 02:00:00 15,6 12,5 1 1 6 3 E -
24.09.2018 01:00:00 16,6 13,1 1 0 7 4 ENE 0,0
24.09.2018 00:00:00 16,6 13,1 0 0 7 4 W 0,0
23.09.2018 23:00:00 17,9 13,2 1 1 9 5 NE 0,0
23.09.2018 22:00:00 19,2 14,0 0 0 8 4 ENE 0,0
23.09.2018 21:00:00 20,5 14,6 0 0 5 3 ESE 0,0
23.09.2018 20:00:00 23,5 13,4 0 0 5 3 SSW -
23.09.2018 19:00:00 26,8 11,7 0 0 15 8 NNE 0,0
23.09.2018 18:00:00 28,4 10,1 5 3 16 8 SSW 0,0
23.09.2018 17:00:00 29,9 10,9 4 2 16 9 SW 0,0
23.09.2018 16:00:00 30,4 11,9 5 3 13 7 SSW 0,0
23.09.2018 15:00:00 30,0 12,4 2 1 8 5 E 0,0
23.09.2018 14:00:00 28,0 12,4 1 1 9 5 S -
23.09.2018 13:00:00 25,7 11,5 1 0 6 3 E 0,0
23.09.2018 12:00:00 24,0 10,3 1 1 5 3 S 0,0
23.09.2018 11:00:00 21,5 11,2 0 0 4 2 ESE 0,0
23.09.2018 10:00:00 17,4 12,7 1 1 4 2 ENE 0,0
23.09.2018 09:00:00 12,0 11,1 2 1 5 3 ENE 0,0
23.09.2018 08:00:00 10,9 10,0 0 0 4 2 SW -
23.09.2018 07:00:00 11,2 10,3 0 0 3 2 ENE 0,0
23.09.2018 06:00:00 11,7 10,6 0 0 4 2 SE 0,0
23.09.2018 05:00:00 12,5 11,4 0 0 4 2 NW 0,0
23.09.2018 04:00:00 12,7 11,4 0 0 4 2 SE 0,0
23.09.2018 03:00:00 13,6 12,2 0 0 4 2 ENE 0,0
23.09.2018 02:00:00 14,4 12,8 1 0 6 4 NE -
23.09.2018 01:00:00 14,9 12,9 0 0 5 3 SSE 0,0
23.09.2018 00:00:00 16,0 13,7 1 1 4 2 NNE 0,0
22.09.2018 23:00:00 17,2 14,1 0 0 3 2 N 0,0
22.09.2018 22:00:00 18,6 14,3 0 0 3 2 ESE 0,0
22.09.2018 21:00:00 20,5 13,9 0 0 4 2 N 0,0
22.09.2018 20:00:00 23,7 12,7 1 1 9 5 SSW -
22.09.2018 19:00:00 26,2 12,3 1 1 10 6 NNW 0,0
22.09.2018 18:00:00 27,4 11,4 3 2 14 8 WSW 0,0
22.09.2018 17:00:00 29,2 11,3 5 3 18 10 WSW 0,0
22.09.2018 16:00:00 29,1 11,2 6 3 16 9 WSW 0,0
22.09.2018 15:00:00 29,0 13,6 2 1 8 5 N 0,0
22.09.2018 14:00:00 27,8 14,1 1 1 7 4 E -
22.09.2018 13:00:00 25,7 13,5 3 2 8 4 S 0,0
22.09.2018 12:00:00 23,5 13,4 4 2 7 4 SSW 0,0
22.09.2018 11:00:00 21,3 13,0 0 0 5 3 E 0,0
22.09.2018 10:00:00 18,0 13,5 1 0 4 2 E 0,0
22.09.2018 09:00:00 13,5 12,6 1 1 4 2 NE 0,0
22.09.2018 08:00:00 12,6 11,7 0 0 3 2 NNE -
22.09.2018 07:00:00 12,8 11,7 0 0 4 2 N 0,0
22.09.2018 06:00:00 13,2 11,8 0 0 4 2 S 0,0
22.09.2018 05:00:00 13,9 12,5 0 0 3 2 N 0,0
22.09.2018 04:00:00 14,5 12,7 0 0 2 1 SW 0,0
22.09.2018 03:00:00 15,3 13,2 1 0 3 2 N 0,0
22.09.2018 02:00:00 15,8 12,7 0 0 5 3 SW -
22.09.2018 01:00:00 16,7 12,7 1 0 12 7 SW 0,0
22.09.2018 00:00:00 18,4 13,5 3 2 18 10 ENE 0,0
21.09.2018 23:00:00 20,6 13,3 6 4 19 10 ENE 0,0
21.09.2018 22:00:00 19,7 14,5 1 0 4 2 SSE 0,0
21.09.2018 21:00:00 21,6 14,3 0 0 5 3 ENE 0,0
21.09.2018 20:00:00 24,0 12,3 0 0 8 4 NE -
21.09.2018 19:00:00 26,7 12,0 0 0 13 7 SW 0,0
21.09.2018 18:00:00 27,4 11,0 4 2 19 10 SW 0,0
21.09.2018 17:00:00 28,4 10,6 5 3 17 9 SSW 0,0
21.09.2018 16:00:00 28,9 10,6 6 3 19 11 WSW 0,0
21.09.2018 15:00:00 29,2 12,2 4 2 9 5 SW 0,0
21.09.2018 14:00:00 27,4 13,0 2 1 6 3 SW -
21.09.2018 13:00:00 25,2 13,1 2 1 6 3 SSW 0,0
21.09.2018 12:00:00 23,6 12,3 1 1 6 3 SW 0,0
21.09.2018 11:00:00 21,3 12,2 1 1 5 3 NE 0,0
21.09.2018 10:00:00 17,9 13,6 0 0 4 2 S 0,0
21.09.2018 09:00:00 13,0 12,1 0 0 6 3 E 0,0
21.09.2018 08:00:00 11,9 11,0 0 0 3 2 SW -
21.09.2018 07:00:00 12,0 10,9 1 0 3 2 E 0,0
21.09.2018 06:00:00 12,5 11,4 0 0 3 2 E 0,0
21.09.2018 05:00:00 12,9 11,6 2 1 5 3 N 0,0
21.09.2018 04:00:00 13,5 12,2 0 0 4 2 S 0,0
21.09.2018 03:00:00 13,9 12,5 0 0 5 3 S 0,0
21.09.2018 02:00:00 14,5 12,7 2 1 5 3 NE -
21.09.2018 01:00:00 14,9 12,9 1 0 4 2 SSE 0,0
21.09.2018 00:00:00 15,7 13,2 1 1 4 2 ENE 0,0
20.09.2018 23:00:00 16,5 13,2 1 0 5 3 NNE 0,0
20.09.2018 22:00:00 17,9 13,2 0 0 3 2 S 0,0
20.09.2018 21:00:00 19,6 13,3 0 0 4 2 NE 0,0
20.09.2018 20:00:00 22,5 11,0 1 1 7 4 WSW -
20.09.2018 19:00:00 26,4 9,7 3 2 11 6 SW 0,0
20.09.2018 18:00:00 26,9 9,7 4 2 19 10 SW 0,0
20.09.2018 17:00:00 28,5 10,7 5 3 16 9 SW 0,0
20.09.2018 16:00:00 29,0 11,6 5 3 12 6 SW 0,0
20.09.2018 15:00:00 28,3 12,2 3 1 8 4 SSW 0,0
20.09.2018 14:00:00 26,0 10,6 1 1 6 3 SSW -
20.09.2018 13:00:00 23,9 10,2 2 1 5 3 S 0,0
20.09.2018 12:00:00 22,4 10,2 1 1 5 3 SSW 0,0
20.09.2018 11:00:00 19,7 10,1 1 0 5 3 S 0,0
20.09.2018 10:00:00 16,0 12,2 2 1 5 3 S 0,0
20.09.2018 09:00:00 11,9 11,0 1 0 3 1 NE 0,0
20.09.2018 08:00:00 10,4 9,5 0 0 3 2 SSW -
20.09.2018 07:00:00 11,1 10,2 2 1 5 3 NNE 0,0
20.09.2018 06:00:00 11,7 10,8 0 0 5 3 S 0,0
20.09.2018 05:00:00 12,3 11,4 1 1 4 2 SSW 0,0

tt = temperature
td = dewpoint
ff = wind speed
fx = gusts
dd = wind direction
rr = precipitation

Next stations